createdAt,value
2019-05-21T00:01:23.822Z,99838.29
2019-05-21T00:03:52.282Z,99833.91
2019-05-21T00:06:20.758Z,99834.35
2019-05-21T00:08:49.236Z,99830.00
2019-05-21T00:11:17.688Z,99833.48
2019-05-21T00:13:46.147Z,99831.30
2019-05-21T00:16:14.630Z,99836.13
2019-05-21T00:18:43.108Z,99836.96
2019-05-21T00:21:11.581Z,99842.20
2019-05-21T00:23:40.061Z,99847.87
2019-05-21T00:26:08.542Z,99841.79
2019-05-21T00:28:38.700Z,99846.15
2019-05-21T00:31:44.140Z,99850.50
2019-05-21T00:34:49.272Z,99847.89
2019-05-21T00:37:53.891Z,99849.63
2019-05-21T00:40:58.605Z,99864.47
2019-05-21T00:43:51.503Z,99854.44
2019-05-21T00:46:19.971Z,99856.17
2019-05-21T00:48:48.441Z,99859.22
2019-05-21T00:51:16.905Z,99867.91
2019-05-21T00:53:45.388Z,99867.88
2019-05-21T00:56:13.829Z,99863.54
2019-05-21T00:58:42.297Z,99861.80
2019-05-21T01:01:10.758Z,99858.34
2019-05-21T01:03:39.235Z,99860.05
2019-05-21T01:06:07.694Z,99863.13
2019-05-21T01:08:36.269Z,99865.76
2019-05-21T01:11:04.720Z,99860.95
2019-05-21T01:13:33.195Z,99867.05
2019-05-21T01:16:01.687Z,99867.06
2019-05-21T01:18:30.119Z,99864.41
2019-05-21T01:20:58.597Z,99858.76
2019-05-21T01:23:27.055Z,99867.02
2019-05-21T01:25:55.523Z,99864.39
2019-05-21T01:28:24.023Z,99866.12
2019-05-21T01:30:52.506Z,99865.27
2019-05-21T01:33:20.952Z,99864.81
2019-05-21T01:35:49.421Z,99865.69
2019-05-21T01:38:17.992Z,99861.31
2019-05-21T01:40:46.509Z,99861.30
2019-05-21T01:43:14.955Z,99858.70
2019-05-21T01:45:43.413Z,99856.51
2019-05-21T01:48:11.890Z,99853.02
2019-05-21T01:50:40.372Z,99850.83
2019-05-21T01:53:08.838Z,99853.87
2019-05-21T01:55:37.295Z,99855.16
2019-05-21T01:58:05.752Z,99853.80
2019-05-21T02:00:34.239Z,99851.70
2019-05-21T02:03:02.690Z,99860.37
2019-05-21T02:05:33.376Z,99860.44
2019-05-21T02:08:01.327Z,99856.91
2019-05-21T02:10:29.797Z,99853.44
2019-05-21T02:12:58.290Z,99854.20
2019-05-21T02:15:26.833Z,99865.10
2019-05-21T02:17:55.293Z,99860.76
2019-05-21T02:20:23.736Z,99861.56
2019-05-21T02:22:52.192Z,99864.20
2019-05-21T02:25:20.728Z,99866.41
2019-05-21T02:27:49.214Z,99865.92
2019-05-21T02:30:17.997Z,99866.41
2019-05-21T02:32:46.450Z,99864.66
2019-05-21T02:35:15.068Z,99860.22
2019-05-21T02:37:43.493Z,99868.94
2019-05-21T02:40:12.482Z,99875.91
2019-05-21T02:42:40.978Z,99881.09
2019-05-21T02:45:10.577Z,99881.11
2019-05-21T02:47:39.083Z,99878.52
2019-05-21T02:50:08.757Z,99879.41
2019-05-21T02:52:37.187Z,99879.86
2019-05-21T02:55:06.593Z,99883.36
2019-05-21T02:57:43.837Z,99886.34
2019-05-21T03:00:17.154Z,99886.34
2019-05-21T03:02:45.602Z,99893.34
2019-05-21T03:05:14.399Z,99894.19
2019-05-21T03:07:42.866Z,99900.21
2019-05-21T03:10:11.568Z,99907.63
2019-05-21T03:12:40.888Z,99909.31
2019-05-21T03:15:09.427Z,99911.49
2019-05-21T03:17:37.902Z,99915.43
2019-05-21T03:20:09.214Z,99914.60
2019-05-21T03:22:37.749Z,99918.13
2019-05-21T03:25:06.627Z,99915.03
2019-05-21T03:27:35.113Z,99919.36
2019-05-21T03:30:05.004Z,99913.33
2019-05-21T03:32:33.483Z,99917.70
2019-05-21T03:35:01.925Z,99916.37
2019-05-21T03:37:30.359Z,99920.30
2019-05-21T03:39:58.908Z,99920.73
2019-05-21T03:42:27.366Z,99924.64
2019-05-21T03:45:00.398Z,99930.77
2019-05-21T03:47:26.248Z,99934.23
2019-05-21T03:49:55.496Z,99934.27
2019-05-21T03:52:24.031Z,99946.00
2019-05-21T03:54:52.496Z,99938.66
2019-05-21T03:57:20.960Z,99939.55
2019-05-21T03:59:49.422Z,99938.66
2019-05-21T04:02:17.945Z,99928.67
2019-05-21T04:04:46.392Z,99936.93
2019-05-21T04:07:16.162Z,99932.59
2019-05-21T04:09:46.288Z,99936.97
2019-05-21T04:12:14.807Z,99933.11
2019-05-21T04:14:44.879Z,99937.03
2019-05-21T04:17:17.633Z,99935.27
2019-05-21T04:19:47.684Z,99935.31
2019-05-21T04:22:19.111Z,99930.11
2019-05-21T04:24:47.577Z,99945.86
2019-05-21T04:27:16.056Z,99949.38
2019-05-21T04:29:44.513Z,99944.55
2019-05-21T04:32:12.943Z,99949.80
2019-05-21T04:34:41.406Z,99945.91
2019-05-21T04:37:12.006Z,99941.63
2019-05-21T04:39:40.893Z,99937.27
2019-05-21T04:42:09.863Z,99932.52
2019-05-21T04:44:38.326Z,99935.58
2019-05-21T04:47:06.780Z,99943.89
2019-05-21T04:49:35.250Z,99939.98
2019-05-21T04:52:03.687Z,99939.97
2019-05-21T04:54:32.142Z,99952.18
2019-05-21T04:57:00.597Z,99948.67
2019-05-21T04:59:29.080Z,99939.08
2019-05-21T05:01:57.563Z,99939.08
2019-05-21T05:04:26.016Z,99947.83
2019-05-21T05:06:54.483Z,99948.26
2019-05-21T05:09:22.950Z,99956.59
2019-05-21T05:11:51.395Z,99954.83
2019-05-21T05:14:19.868Z,99956.59
2019-05-21T05:16:48.318Z,99955.70
2019-05-21T05:19:16.767Z,99955.69
2019-05-21T05:21:45.238Z,99954.33
2019-05-21T05:24:13.675Z,99951.28
2019-05-21T05:26:42.160Z,99950.86
2019-05-21T05:29:10.619Z,99949.50
2019-05-21T05:31:39.089Z,99947.78
2019-05-21T05:34:07.520Z,99957.36
2019-05-21T05:36:36.051Z,99947.23
2019-05-21T05:39:06.769Z,99954.70
2019-05-21T05:41:35.212Z,99957.35
2019-05-21T05:44:03.859Z,99960.36
2019-05-21T05:46:32.338Z,99951.59
2019-05-21T05:49:04.867Z,99964.27
2019-05-21T05:51:33.371Z,99956.27
2019-05-21T05:54:01.807Z,99964.27
2019-05-21T05:56:30.251Z,99963.72
2019-05-21T05:58:58.791Z,99965.32
2019-05-21T06:01:29.046Z,99968.55
2019-05-21T06:03:57.725Z,99971.20
2019-05-21T06:06:26.199Z,99975.19
2019-05-21T06:08:54.675Z,99973.39
2019-05-21T06:11:23.131Z,99970.41
2019-05-21T06:13:51.593Z,99966.91
2019-05-21T06:16:20.498Z,99974.76
2019-05-21T06:18:48.968Z,99971.27
2019-05-21T06:21:17.443Z,99970.28
2019-05-21T06:23:45.865Z,99964.39
2019-05-21T06:26:14.347Z,99979.14
2019-05-21T06:28:42.829Z,99973.72
2019-05-21T06:31:11.299Z,99974.56
2019-05-21T06:33:39.745Z,99967.41
2019-05-21T06:36:08.201Z,99971.77
2019-05-21T06:38:36.665Z,99969.42
2019-05-21T06:41:05.144Z,99968.21
2019-05-21T06:43:33.605Z,99976.72
2019-05-21T06:46:02.064Z,99977.86
2019-05-21T06:48:30.525Z,99980.31
2019-05-21T06:50:59.042Z,99982.78
2019-05-21T06:53:27.561Z,99978.43
2019-05-21T06:55:56.006Z,99977.45
2019-05-21T06:58:25.059Z,99976.41
2019-05-21T07:00:53.527Z,99981.17
2019-05-21T07:03:22.008Z,99983.80
2019-05-21T07:05:58.697Z,99988.09
2019-05-21T07:08:33.680Z,99982.80
2019-05-21T07:10:50.823Z,99980.02
2019-05-21T07:13:19.264Z,99986.48
2019-05-21T07:15:47.802Z,99987.24
2019-05-21T07:18:16.254Z,99987.66
2019-05-21T07:20:44.763Z,99982.53
2019-05-21T07:23:13.234Z,99985.56
2019-05-21T07:25:41.724Z,99989.81
2019-05-21T07:28:10.248Z,99998.61
2019-05-21T07:30:38.679Z,99996.95
2019-05-21T07:33:07.545Z,99997.53
2019-05-21T07:35:36.200Z,99997.16
2019-05-21T07:38:04.632Z,100003.17
2019-05-21T07:40:33.140Z,100001.58
2019-05-21T07:43:01.624Z,99999.81
2019-05-21T07:45:30.080Z,100004.42
2019-05-21T07:47:58.545Z,100000.28
2019-05-21T07:50:27.004Z,100001.73
2019-05-21T07:52:55.490Z,100002.04
2019-05-21T07:55:23.955Z,100005.38
2019-05-21T07:57:52.418Z,99995.41
2019-05-21T08:00:21.716Z,100000.67
2019-05-21T08:02:50.190Z,100007.06
2019-05-21T08:05:18.708Z,100007.01
2019-05-21T08:07:47.148Z,100012.80
2019-05-21T08:10:15.754Z,100010.11
2019-05-21T08:12:44.196Z,100010.44
2019-05-21T08:15:13.041Z,100007.56
2019-05-21T08:17:41.516Z,100006.78
2019-05-21T08:20:11.649Z,100008.34
2019-05-21T08:22:40.113Z,100007.77
2019-05-21T08:25:08.623Z,100016.74
2019-05-21T08:27:37.140Z,100024.32
2019-05-21T08:30:08.750Z,100020.30
2019-05-21T08:32:37.222Z,100024.56
2019-05-21T08:35:06.782Z,100020.30
2019-05-21T08:37:35.264Z,100020.83
2019-05-21T08:40:05.816Z,100021.75
2019-05-21T08:42:34.283Z,100027.07
2019-05-21T08:45:03.765Z,100029.42
2019-05-21T08:47:32.528Z,100029.20
2019-05-21T08:50:00.965Z,100030.37
2019-05-21T08:52:29.453Z,100021.59
2019-05-21T08:54:57.910Z,100024.02
2019-05-21T08:57:26.357Z,100020.57
2019-05-21T08:59:54.970Z,100029.61
2019-05-21T09:02:24.581Z,100030.64
2019-05-21T09:04:53.031Z,100033.41
2019-05-21T09:07:21.467Z,100035.01
2019-05-21T09:09:51.755Z,100025.72
2019-05-21T09:12:20.153Z,100033.59
2019-05-21T09:14:48.637Z,100040.34
2019-05-21T09:17:17.074Z,100041.16
2019-05-21T09:19:45.542Z,100042.67
2019-05-21T09:22:13.982Z,100049.60
2019-05-21T09:24:42.458Z,100042.63
2019-05-21T09:27:10.891Z,100050.32
2019-05-21T09:29:39.328Z,100050.41
2019-05-21T09:32:07.792Z,100055.91
2019-05-21T09:34:48.187Z,100055.38
2019-05-21T09:37:18.648Z,100054.23
2019-05-21T09:39:36.632Z,100050.23
2019-05-21T09:42:05.217Z,100057.11
2019-05-21T09:44:33.701Z,100057.11
2019-05-21T09:47:02.162Z,100056.44
2019-05-21T09:49:30.607Z,100056.73
2019-05-21T09:51:59.130Z,100053.71
2019-05-21T09:54:27.525Z,100052.65
2019-05-21T09:56:56.000Z,100049.97
2019-05-21T09:59:29.880Z,100054.32
2019-05-21T10:02:02.478Z,100048.66
2019-05-21T10:04:30.939Z,100051.38
2019-05-21T10:06:59.394Z,100051.97
2019-05-21T10:09:28.089Z,100049.70
2019-05-21T10:11:56.555Z,100056.95
2019-05-21T10:14:25.016Z,100063.46
2019-05-21T10:16:53.461Z,100062.77
2019-05-21T10:19:21.931Z,100059.91
2019-05-21T10:21:50.368Z,100056.03
2019-05-21T10:24:18.833Z,100062.50
2019-05-21T10:26:47.339Z,100063.66
2019-05-21T10:29:15.813Z,100063.24
2019-05-21T10:31:44.279Z,100060.01
2019-05-21T10:34:13.587Z,100057.85
2019-05-21T10:36:42.215Z,100061.08
2019-05-21T10:39:10.903Z,100061.44
2019-05-21T10:41:39.362Z,100067.13
2019-05-21T10:44:07.911Z,100065.49
2019-05-21T10:46:36.490Z,100069.83
2019-05-21T10:49:05.313Z,100068.05
2019-05-21T10:51:33.807Z,100062.62
2019-05-21T10:54:02.755Z,100068.69
2019-05-21T10:56:46.863Z,100069.74
2019-05-21T10:59:01.450Z,100070.70
2019-05-21T11:01:31.529Z,100072.42
2019-05-21T11:04:13.352Z,100067.06
2019-05-21T11:06:43.632Z,100071.24
2019-05-21T11:09:19.882Z,100076.94
2019-05-21T11:11:48.484Z,100076.97
2019-05-21T11:14:17.922Z,100068.47
2019-05-21T11:16:46.398Z,100074.44
2019-05-21T11:19:14.831Z,100073.52
2019-05-21T11:21:43.298Z,100076.33
2019-05-21T11:24:11.792Z,100074.03
2019-05-21T11:26:40.233Z,100069.55
2019-05-21T11:29:08.660Z,100078.13
2019-05-21T11:31:37.282Z,100073.21
2019-05-21T11:34:05.805Z,100083.19
2019-05-21T11:36:34.256Z,100074.74
2019-05-21T11:39:04.582Z,100067.00
2019-05-21T11:41:33.133Z,100073.64
2019-05-21T11:44:01.614Z,100070.22
2019-05-21T11:46:30.153Z,100076.28
2019-05-21T11:48:58.614Z,100074.70
2019-05-21T11:51:27.091Z,100079.08
2019-05-21T11:53:55.849Z,100074.86
2019-05-21T11:56:24.335Z,100075.56
2019-05-21T11:58:52.815Z,100077.20
2019-05-21T12:01:21.244Z,100076.80
2019-05-21T12:03:49.683Z,100077.16
2019-05-21T12:06:18.226Z,100078.56
2019-05-21T12:08:56.382Z,100078.72
2019-05-21T12:11:17.128Z,100077.95
2019-05-21T12:13:45.787Z,100076.85
2019-05-21T12:16:14.222Z,100077.12
2019-05-21T12:18:42.673Z,100075.80
2019-05-21T12:21:11.224Z,100078.84
2019-05-21T12:23:39.724Z,100077.09
2019-05-21T12:26:08.128Z,100073.14
2019-05-21T12:28:36.599Z,100071.17
2019-05-21T12:31:05.170Z,100072.90
2019-05-21T12:33:35.169Z,100068.10
2019-05-21T12:36:03.887Z,100065.05
2019-05-21T12:38:32.328Z,100071.91
2019-05-21T12:41:00.788Z,100068.91
2019-05-21T12:43:29.245Z,100069.97
2019-05-21T12:45:57.695Z,100067.89
2019-05-21T12:48:26.133Z,100074.39
2019-05-21T12:50:54.695Z,100077.98
2019-05-21T12:53:23.171Z,100072.31
2019-05-21T12:55:51.679Z,100080.92
2019-05-21T12:58:20.153Z,100083.50
2019-05-21T13:00:48.666Z,100079.44
2019-05-21T13:03:17.122Z,100078.09
2019-05-21T13:05:45.572Z,100080.77
2019-05-21T13:08:14.047Z,100081.09
2019-05-21T13:10:42.540Z,100080.92
2019-05-21T13:13:11.016Z,100086.16
2019-05-21T13:15:39.476Z,100081.35
2019-05-21T13:18:07.907Z,100085.13
2019-05-21T13:20:36.419Z,100078.18
2019-05-21T13:23:05.167Z,100087.95
2019-05-21T13:25:34.016Z,100086.14
2019-05-21T13:28:02.469Z,100086.50
2019-05-21T13:30:30.953Z,100080.97
2019-05-21T13:32:59.422Z,100079.73
2019-05-21T13:35:27.872Z,100075.47
2019-05-21T13:37:56.301Z,100075.78
2019-05-21T13:40:24.817Z,100078.05
2019-05-21T13:42:53.309Z,100076.84
2019-05-21T13:45:21.746Z,100079.13
2019-05-21T13:47:50.265Z,100087.78
2019-05-21T13:50:18.784Z,100080.50
2019-05-21T13:52:47.252Z,100080.62
2019-05-21T13:55:15.851Z,100078.70
2019-05-21T13:57:44.344Z,100079.25
2019-05-21T14:00:19.585Z,100077.43
2019-05-21T14:02:48.036Z,100083.61
2019-05-21T14:05:16.903Z,100079.17
2019-05-21T14:07:45.368Z,100082.58
2019-05-21T14:10:20.184Z,100074.06
2019-05-21T14:12:45.931Z,100080.97
2019-05-21T14:15:14.513Z,100081.81
2019-05-21T14:17:42.954Z,100075.83
2019-05-21T14:20:12.674Z,100078.21
2019-05-21T14:22:41.143Z,100081.55
2019-05-21T14:25:10.258Z,100074.23
2019-05-21T14:27:44.270Z,100070.33
2019-05-21T14:30:09.915Z,100076.69
2019-05-21T14:32:38.399Z,100067.96
2019-05-21T14:35:07.174Z,100067.42
2019-05-21T14:37:35.657Z,100079.28
2019-05-21T14:40:09.503Z,100074.23
2019-05-21T14:42:38.025Z,100080.48
2019-05-21T14:45:07.836Z,100077.20
2019-05-21T14:47:36.243Z,100075.17
2019-05-21T14:50:08.207Z,100082.41
2019-05-21T14:52:36.726Z,100080.69
2019-05-21T14:55:08.569Z,100073.95
2019-05-21T14:57:37.008Z,100079.52
2019-05-21T15:00:09.114Z,100080.92
2019-05-21T15:02:37.620Z,100080.85
2019-05-21T15:05:06.498Z,100079.73
2019-05-21T15:07:34.936Z,100091.39
2019-05-21T15:10:03.497Z,100086.95
2019-05-21T15:12:32.019Z,100087.45
2019-05-21T15:15:00.466Z,100092.50
2019-05-21T15:17:28.949Z,100087.41
2019-05-21T15:19:59.039Z,100093.11
2019-05-21T15:22:27.583Z,100089.31
2019-05-21T15:24:56.041Z,100090.91
2019-05-21T15:27:24.467Z,100092.83
2019-05-21T15:29:52.933Z,100085.42
2019-05-21T15:32:21.396Z,100091.09
2019-05-21T15:34:49.837Z,100088.85
2019-05-21T15:37:18.336Z,100084.84
2019-05-21T15:39:47.056Z,100088.02
2019-05-21T15:42:15.532Z,100085.98
2019-05-21T15:44:44.003Z,100093.61
2019-05-21T15:47:12.495Z,100082.25
2019-05-21T15:49:40.930Z,100078.57
2019-05-21T15:52:09.419Z,100077.52
2019-05-21T15:54:37.910Z,100082.05
2019-05-21T15:57:06.399Z,100082.62
2019-05-21T15:59:34.962Z,100094.08
2019-05-21T16:02:03.533Z,100092.31
2019-05-21T16:04:32.019Z,100089.37
2019-05-21T16:07:00.432Z,100086.81
2019-05-21T16:09:28.964Z,100089.81
2019-05-21T16:11:58.582Z,100085.41
2019-05-21T16:14:27.035Z,100099.36
2019-05-21T16:16:55.515Z,100105.02
2019-05-21T16:19:24.037Z,100106.02
2019-05-21T16:21:52.492Z,100098.61
2019-05-21T16:24:20.934Z,100103.68
2019-05-21T16:26:49.424Z,100100.19
2019-05-21T16:29:17.888Z,100098.77
2019-05-21T16:31:46.333Z,100101.61
2019-05-21T16:34:14.827Z,100111.73
2019-05-21T16:36:43.485Z,100117.60
2019-05-21T16:39:13.619Z,100116.75
2019-05-21T16:41:45.159Z,100112.44
2019-05-21T16:44:12.283Z,100116.77
2019-05-21T16:46:42.734Z,100121.28
2019-05-21T16:49:11.257Z,100124.51
2019-05-21T16:51:43.411Z,100123.22
2019-05-21T16:54:10.887Z,100129.59
2019-05-21T16:56:39.333Z,100129.63
2019-05-21T16:59:07.885Z,100128.04
2019-05-21T17:01:36.364Z,100131.03
2019-05-21T17:04:04.808Z,100132.92
2019-05-21T17:06:33.277Z,100138.55
2019-05-21T17:09:01.721Z,100139.03
2019-05-21T17:11:30.187Z,100142.13
2019-05-21T17:13:58.691Z,100147.42
2019-05-21T17:16:27.160Z,100149.02
2019-05-21T17:18:55.658Z,100149.09
2019-05-21T17:21:24.104Z,100152.28
2019-05-21T17:23:52.666Z,100157.83
2019-05-21T17:26:21.141Z,100157.09
2019-05-21T17:28:49.596Z,100162.11
2019-05-21T17:31:19.112Z,100165.72
2019-05-21T17:33:47.653Z,100155.84
2019-05-21T17:36:16.144Z,100160.23
2019-05-21T17:38:44.901Z,100164.64
2019-05-21T17:41:13.431Z,100164.95
2019-05-21T17:43:42.050Z,100164.12
2019-05-21T17:46:10.506Z,100164.30
2019-05-21T17:48:39.053Z,100168.09
2019-05-21T17:51:09.104Z,100165.39
2019-05-21T17:53:37.863Z,100166.28
2019-05-21T17:56:06.434Z,100164.70
2019-05-21T17:58:34.913Z,100160.27
2019-05-21T18:01:07.931Z,100160.23
2019-05-21T18:03:36.432Z,100166.61
2019-05-21T18:06:07.011Z,100169.95
2019-05-21T18:08:35.920Z,100174.14
2019-05-21T18:11:04.673Z,100177.05
2019-05-21T18:13:34.147Z,100177.62
2019-05-21T18:16:03.606Z,100186.08
2019-05-21T18:18:32.668Z,100184.71
2019-05-21T18:21:02.177Z,100191.98
2019-05-21T18:23:30.658Z,100189.84
2019-05-21T18:25:59.150Z,100192.98
2019-05-21T18:28:27.612Z,100197.03
2019-05-21T18:30:56.289Z,100200.63
2019-05-21T18:33:24.786Z,100195.48
2019-05-21T18:35:53.263Z,100202.63
2019-05-21T18:38:21.727Z,100199.83
2019-05-21T18:40:50.178Z,100206.11
2019-05-21T18:43:18.647Z,100211.08
2019-05-21T18:45:47.136Z,100215.55
2019-05-21T18:48:15.646Z,100223.87
2019-05-21T18:50:44.192Z,100228.70
2019-05-21T18:53:12.676Z,100228.86
2019-05-21T18:55:41.123Z,100238.70
2019-05-21T18:58:09.670Z,100245.20
2019-05-21T19:00:38.183Z,100243.87
2019-05-21T19:03:06.724Z,100244.16
2019-05-21T19:05:35.156Z,100250.30
2019-05-21T19:08:03.713Z,100253.97
2019-05-21T19:10:32.167Z,100258.52
2019-05-21T19:13:01.287Z,100256.81
2019-05-21T19:15:30.223Z,100259.73
2019-05-21T19:17:58.670Z,100265.49
2019-05-21T19:20:27.131Z,100259.88
2019-05-21T19:22:55.682Z,100258.89
2019-05-21T19:25:25.515Z,100262.82
2019-05-21T19:27:54.037Z,100275.61
2019-05-21T19:30:22.634Z,100279.72
2019-05-21T19:32:51.104Z,100288.66
2019-05-21T19:35:19.554Z,100300.22
2019-05-21T19:37:48.027Z,100304.97
2019-05-21T19:40:16.638Z,100310.33
2019-05-21T19:42:54.375Z,100312.58
2019-05-21T19:45:17.145Z,100321.50
2019-05-21T19:47:45.593Z,100326.71
2019-05-21T19:50:14.611Z,100315.76
2019-05-21T19:52:43.063Z,100329.91
2019-05-21T19:55:11.875Z,100338.03
2019-05-21T19:57:41.990Z,100337.56
2019-05-21T20:00:11.069Z,100340.25
2019-05-21T20:02:39.698Z,100337.70
2019-05-21T20:05:09.083Z,100338.86
2019-05-21T20:07:37.698Z,100335.58
2019-05-21T20:10:09.031Z,100339.14
2019-05-21T20:12:37.556Z,100353.85
2019-05-21T20:15:09.025Z,100347.55
2019-05-21T20:17:38.635Z,100352.01
2019-05-21T20:20:09.065Z,100358.41
2019-05-21T20:22:37.796Z,100362.06
2019-05-21T20:25:08.454Z,100353.94
2019-05-21T20:27:37.067Z,100354.08
2019-05-21T20:30:12.616Z,100359.88
2019-05-21T20:32:40.651Z,100377.42
2019-05-21T20:35:11.998Z,100368.78
2019-05-21T20:37:41.157Z,100366.60
2019-05-21T20:40:11.231Z,100375.38
2019-05-21T20:42:41.152Z,100377.58
2019-05-21T20:45:12.817Z,100376.30
2019-05-21T20:47:41.334Z,100379.37
2019-05-21T20:50:12.526Z,100385.93
2019-05-21T20:52:42.111Z,100385.97
2019-05-21T20:55:11.096Z,100379.78
2019-05-21T20:57:39.716Z,100379.80
2019-05-21T21:00:10.757Z,100381.55
2019-05-21T21:02:40.765Z,100376.34
2019-05-21T21:05:12.012Z,100379.36
2019-05-21T21:07:41.511Z,100380.68
2019-05-21T21:10:11.956Z,100374.56
2019-05-21T21:12:41.289Z,100374.56
2019-05-21T21:15:11.567Z,100382.45
2019-05-21T21:17:40.021Z,100379.37
2019-05-21T21:20:08.603Z,100373.72
2019-05-21T21:22:37.041Z,100374.58
2019-05-21T21:25:06.680Z,100371.92
2019-05-21T21:27:36.190Z,100371.08
2019-05-21T21:30:07.677Z,100365.81
2019-05-21T21:32:36.374Z,100372.83
2019-05-21T21:35:06.536Z,100372.39
2019-05-21T21:37:35.010Z,100375.44
2019-05-21T21:40:06.075Z,100382.46
2019-05-21T21:42:34.538Z,100387.28
2019-05-21T21:45:03.271Z,100383.77
2019-05-21T21:47:31.733Z,100388.16
2019-05-21T21:50:01.031Z,100382.87
2019-05-21T21:52:30.626Z,100383.77
2019-05-21T21:54:59.661Z,100387.28
2019-05-21T21:57:28.145Z,100383.74
2019-05-21T21:59:56.738Z,100389.44
2019-05-21T22:02:28.542Z,100393.83
2019-05-21T22:04:57.654Z,100390.31
2019-05-21T22:07:26.486Z,100399.53
2019-05-21T22:09:55.733Z,100399.94
2019-05-21T22:12:24.735Z,100411.34
2019-05-21T22:14:58.557Z,100420.52
2019-05-21T22:17:27.419Z,100419.63
2019-05-21T22:19:56.465Z,100424.05
2019-05-21T22:22:25.835Z,100424.90
2019-05-21T22:24:54.520Z,100425.77
2019-05-21T22:27:22.979Z,100427.96
2019-05-21T22:29:51.441Z,100422.25
2019-05-21T22:32:19.906Z,100425.77
2019-05-21T22:34:48.417Z,100423.55
2019-05-21T22:37:18.505Z,100412.17
2019-05-21T22:39:48.051Z,100421.83
2019-05-21T22:42:16.956Z,100413.09
2019-05-21T22:44:45.871Z,100415.70
2019-05-21T22:47:15.126Z,100414.38
2019-05-21T22:49:43.557Z,100407.36
2019-05-21T22:52:12.540Z,100412.18
2019-05-21T22:54:40.980Z,100415.67
2019-05-21T22:57:09.450Z,100413.03
2019-05-21T22:59:37.899Z,100414.80
2019-05-21T23:02:08.256Z,100417.86
2019-05-21T23:04:36.851Z,100412.18
2019-05-21T23:07:06.957Z,100420.51
2019-05-21T23:09:35.686Z,100421.84
2019-05-21T23:12:04.395Z,100418.31
2019-05-21T23:14:33.108Z,100417.42
2019-05-21T23:17:01.763Z,100415.70
2019-05-21T23:19:31.590Z,100415.72
2019-05-21T23:22:00.917Z,100414.83
2019-05-21T23:24:29.666Z,100406.08
2019-05-21T23:26:58.879Z,100399.07
2019-05-21T23:29:27.761Z,100405.20
2019-05-21T23:31:56.293Z,100404.32
2019-05-21T23:34:25.003Z,100402.58
2019-05-21T23:36:55.295Z,100412.63
2019-05-21T23:39:26.185Z,100412.64
2019-05-21T23:41:55.238Z,100418.31
2019-05-21T23:44:24.240Z,100417.89
2019-05-21T23:46:52.905Z,100422.23
2019-05-21T23:49:21.536Z,100417.41
2019-05-21T23:51:49.986Z,100414.81
2019-05-21T23:54:18.508Z,100410.41
2019-05-21T23:56:47.713Z,100412.61
2019-05-21T23:59:16.247Z,100407.80
